createdAt,value
2017-12-02T00:00:33.128Z,76.40
2017-12-02T00:02:59.457Z,76.80
2017-12-02T00:05:25.703Z,76.60
2017-12-02T00:07:51.913Z,76.00
2017-12-02T00:10:18.179Z,76.10
2017-12-02T00:12:45.165Z,76.60
2017-12-02T00:15:11.400Z,76.40
2017-12-02T00:17:37.658Z,76.90
2017-12-02T00:20:03.894Z,78.50
2017-12-02T00:22:30.172Z,76.80
2017-12-02T00:24:56.391Z,76.80
2017-12-02T00:27:22.640Z,76.80
2017-12-02T00:29:48.875Z,77.00
2017-12-02T00:32:15.509Z,77.10
2017-12-02T00:34:42.132Z,77.30
2017-12-02T00:37:09.105Z,77.90
2017-12-02T00:39:35.392Z,78.00
2017-12-02T00:42:02.394Z,78.20
2017-12-02T00:44:28.570Z,78.20
2017-12-02T00:46:55.522Z,78.20
2017-12-02T00:49:22.480Z,78.10
2017-12-02T00:51:48.676Z,78.20
2017-12-02T00:54:14.843Z,77.70
2017-12-02T00:56:41.075Z,77.30
2017-12-02T00:59:07.264Z,77.10
2017-12-02T01:01:33.434Z,77.30
2017-12-02T01:03:59.667Z,77.90
2017-12-02T01:06:25.881Z,78.00
2017-12-02T01:08:52.052Z,77.70
2017-12-02T01:11:18.313Z,78.10
2017-12-02T01:13:44.533Z,77.80
2017-12-02T01:16:10.816Z,78.50
2017-12-02T01:18:37.010Z,77.50
2017-12-02T01:21:03.296Z,77.80
2017-12-02T01:23:30.274Z,78.10
2017-12-02T01:25:56.452Z,78.20
2017-12-02T01:28:22.638Z,78.20
2017-12-02T01:30:49.637Z,78.30
2017-12-02T01:33:15.811Z,77.90
2017-12-02T01:35:42.743Z,78.40
2017-12-02T01:38:08.914Z,78.00
2017-12-02T01:40:35.108Z,78.00
2017-12-02T01:43:01.314Z,78.10
2017-12-02T01:45:27.480Z,79.10
2017-12-02T01:47:54.499Z,78.60
2017-12-02T01:50:20.630Z,77.90
2017-12-02T01:52:46.849Z,77.80
2017-12-02T01:55:13.090Z,77.50
2017-12-02T01:57:39.298Z,77.10
2017-12-02T02:00:06.319Z,77.10
2017-12-02T02:02:32.541Z,77.30
2017-12-02T02:04:58.755Z,77.10
2017-12-02T02:07:24.965Z,77.00
2017-12-02T02:09:51.902Z,77.80
2017-12-02T02:12:18.068Z,77.40
2017-12-02T02:14:44.271Z,77.90
2017-12-02T02:57:15.725Z,77.50
2017-12-02T02:59:47.155Z,77.70
2017-12-02T03:02:14.154Z,77.80
2017-12-02T03:04:40.337Z,77.80
2017-12-02T03:07:07.295Z,78.50
2017-12-02T03:09:33.534Z,77.90
2017-12-02T03:11:59.790Z,78.20
2017-12-02T03:14:26.079Z,78.00
2017-12-02T03:19:41.551Z,78.30
2017-12-02T03:22:07.771Z,78.50
2017-12-02T03:24:34.080Z,78.50
2017-12-02T03:27:00.331Z,79.10
2017-12-02T03:29:26.536Z,79.00
2017-12-02T03:31:53.469Z,79.20
2017-12-02T03:34:19.730Z,79.20
2017-12-02T03:36:45.936Z,79.00
2017-12-02T03:39:12.144Z,79.50
2017-12-02T03:41:38.347Z,79.60
2017-12-02T03:44:05.310Z,79.90
2017-12-02T03:46:31.521Z,79.40
2017-12-02T03:48:58.418Z,80.00
2017-12-02T03:51:24.641Z,79.40
2017-12-02T03:53:50.853Z,79.60
2017-12-02T03:56:17.078Z,80.10
2017-12-02T03:58:43.340Z,80.10
2017-12-02T04:01:09.537Z,79.90
2017-12-02T04:03:35.866Z,80.10
2017-12-02T04:06:02.123Z,79.20
2017-12-02T04:08:28.352Z,79.60
2017-12-02T04:10:54.538Z,80.00
2017-12-02T04:13:20.782Z,80.10
2017-12-02T04:15:46.992Z,80.00
2017-12-02T04:18:14.002Z,80.10
2017-12-02T04:20:41.305Z,80.10
2017-12-02T04:23:07.580Z,80.10
2017-12-02T04:25:34.003Z,80.20
2017-12-02T04:28:00.273Z,80.40
2017-12-02T04:30:27.358Z,80.50
2017-12-02T04:32:54.256Z,80.20
2017-12-02T04:35:20.462Z,80.20
2017-12-02T04:37:46.625Z,80.60
2017-12-02T04:40:13.730Z,80.60
2017-12-02T04:42:40.920Z,80.50
2017-12-02T04:45:07.875Z,80.80
2017-12-02T04:47:34.831Z,81.00
2017-12-02T04:50:01.058Z,80.90
2017-12-02T04:52:28.057Z,80.70
2017-12-02T04:54:54.265Z,80.80
2017-12-02T04:57:20.468Z,80.30
2017-12-02T04:59:46.677Z,80.10
2017-12-02T05:02:13.665Z,80.50
2017-12-02T05:04:39.889Z,80.50
2017-12-02T05:07:07.005Z,79.70
2017-12-02T05:09:34.029Z,80.10
2017-12-02T05:12:00.244Z,79.50
2017-12-02T05:14:26.435Z,80.20
2017-12-02T05:16:52.650Z,79.40
2017-12-02T05:19:19.635Z,80.40
2017-12-02T05:21:45.850Z,80.40
2017-12-02T05:24:12.154Z,80.10
2017-12-02T05:26:38.372Z,80.30
2017-12-02T05:29:05.323Z,80.50
2017-12-02T05:31:32.281Z,80.60
2017-12-02T05:33:58.493Z,80.10
2017-12-02T05:36:25.490Z,80.90
2017-12-02T05:38:51.684Z,80.30
2017-12-02T05:41:18.643Z,80.90
2017-12-02T05:43:44.812Z,80.30
2017-12-02T05:46:11.046Z,81.20
2017-12-02T05:48:37.264Z,81.40
2017-12-02T05:51:03.512Z,81.40
2017-12-02T05:53:29.694Z,81.50
2017-12-02T05:55:55.942Z,81.50
2017-12-02T05:58:22.144Z,81.90
2017-12-02T06:00:48.328Z,81.00
2017-12-02T06:03:15.542Z,80.80
2017-12-02T06:05:41.819Z,80.70
2017-12-02T06:08:08.799Z,81.10
2017-12-02T06:10:35.030Z,81.00
2017-12-02T06:13:01.212Z,81.00
2017-12-02T06:15:27.512Z,81.10
2017-12-02T06:17:53.714Z,80.90
2017-12-02T06:20:19.956Z,80.80
2017-12-02T06:22:46.190Z,80.50
2017-12-02T06:25:12.505Z,79.60
2017-12-02T06:27:38.718Z,80.10
2017-12-02T06:30:05.802Z,80.60
2017-12-02T06:32:32.013Z,80.40
2017-12-02T06:34:58.201Z,80.50
2017-12-02T06:37:24.432Z,80.60
2017-12-02T06:39:52.283Z,80.30
2017-12-02T06:42:18.551Z,80.50
2017-12-02T06:44:45.535Z,80.60
2017-12-02T06:47:11.797Z,80.70
2017-12-02T06:49:38.013Z,80.30
2017-12-02T06:52:04.324Z,80.30
2017-12-02T06:54:30.500Z,80.50
2017-12-02T06:56:57.474Z,80.40
2017-12-02T06:59:23.827Z,80.30
2017-12-02T07:01:51.443Z,80.30
2017-12-02T07:04:17.755Z,79.60
2017-12-02T07:06:44.005Z,80.10
2017-12-02T07:09:10.997Z,80.20
2017-12-02T07:11:37.265Z,79.40
2017-12-02T07:14:03.696Z,80.00
2017-12-02T07:16:29.964Z,79.40
2017-12-02T07:18:56.384Z,79.40
2017-12-02T07:21:23.505Z,80.00
2017-12-02T07:23:49.792Z,79.90
2017-12-02T07:26:17.859Z,79.70
2017-12-02T07:28:44.210Z,79.40
2017-12-02T07:31:11.530Z,79.40
2017-12-02T07:33:38.741Z,79.80
2017-12-02T07:36:05.730Z,79.80
2017-12-02T07:38:32.643Z,80.00
2017-12-02T07:40:58.925Z,79.80
2017-12-02T07:43:25.136Z,79.60
2017-12-02T07:45:52.443Z,80.10
2017-12-02T07:48:18.746Z,79.60
2017-12-02T08:00:30.875Z,79.00
2017-12-02T08:02:57.832Z,79.40
2017-12-02T08:05:24.815Z,79.40
2017-12-02T08:07:51.037Z,79.40
2017-12-02T08:10:17.282Z,79.20
2017-12-02T08:12:44.999Z,79.10
2017-12-02T08:15:11.972Z,79.10
2017-12-02T08:17:38.209Z,78.40
2017-12-02T08:20:04.424Z,79.00
2017-12-02T08:22:32.317Z,77.70
2017-12-02T08:24:58.624Z,77.50
2017-12-02T08:27:24.890Z,77.40
2017-12-02T08:29:51.534Z,76.90
2017-12-02T08:32:17.828Z,76.70
2017-12-02T08:34:44.188Z,76.20
2017-12-02T08:37:10.963Z,76.10
2017-12-02T08:39:37.906Z,76.70
2017-12-02T08:42:04.870Z,76.30
2017-12-02T08:44:31.120Z,75.50
2017-12-02T08:46:57.314Z,74.90
2017-12-02T08:49:24.283Z,75.30
2017-12-02T08:51:50.544Z,75.30
2017-12-02T08:54:16.759Z,74.70
2017-12-02T08:56:43.162Z,74.70
2017-12-02T08:59:10.192Z,75.60
2017-12-02T09:01:36.391Z,75.60
2017-12-02T09:04:02.683Z,80.50
2017-12-02T09:06:28.922Z,76.20
2017-12-02T09:08:55.183Z,75.70
2017-12-02T09:11:21.423Z,76.10
2017-12-02T09:13:47.724Z,74.70
2017-12-02T09:16:14.013Z,75.20
2017-12-02T09:18:42.014Z,74.80
2017-12-02T09:21:08.305Z,75.80
2017-12-02T09:23:34.598Z,76.20
2017-12-02T09:26:01.315Z,76.60
2017-12-02T09:28:28.558Z,76.20
2017-12-02T09:30:55.183Z,77.10
2017-12-02T09:33:21.496Z,76.40
2017-12-02T09:35:48.725Z,76.60
2017-12-02T09:38:14.990Z,75.30
2017-12-02T09:40:42.793Z,74.40
2017-12-02T09:43:09.106Z,74.30
2017-12-02T09:45:37.114Z,73.40
2017-12-02T09:48:04.496Z,73.40
2017-12-02T09:50:33.569Z,73.20
2017-12-02T09:53:00.326Z,72.50
2017-12-02T09:55:27.343Z,71.80
2017-12-02T09:57:53.924Z,72.50
2017-12-02T10:00:20.956Z,71.00
2017-12-02T10:02:47.990Z,71.00
2017-12-02T10:05:14.235Z,69.90
2017-12-02T10:07:41.933Z,69.00
2017-12-02T10:10:08.183Z,65.80
2017-12-02T10:12:34.415Z,66.40
2017-12-02T10:15:01.904Z,64.10
2017-12-02T10:17:28.125Z,63.30
2017-12-02T10:19:54.409Z,62.10
2017-12-02T10:22:21.426Z,62.40
2017-12-02T10:24:48.301Z,61.10
2017-12-02T10:27:15.274Z,62.20
2017-12-02T10:29:41.526Z,62.20
2017-12-02T10:32:07.792Z,60.80
2017-12-02T10:34:35.537Z,61.40
2017-12-02T10:37:01.770Z,61.80
2017-12-02T10:39:28.109Z,60.90
2017-12-02T10:41:54.413Z,61.50
2017-12-02T10:44:21.703Z,61.90
2017-12-02T10:46:48.702Z,62.50
2017-12-02T10:49:14.958Z,62.30
2017-12-02T10:51:41.250Z,63.00
2017-12-02T10:54:07.518Z,64.00
2017-12-02T10:56:33.815Z,64.50
2017-12-02T10:59:00.934Z,65.60
2017-12-02T11:01:29.237Z,64.30
2017-12-02T11:03:55.512Z,61.10
2017-12-02T11:06:22.211Z,58.90
2017-12-02T11:08:48.696Z,56.30
2017-12-02T11:11:15.237Z,56.40
2017-12-02T11:13:43.120Z,52.10
2017-12-02T11:16:11.202Z,52.50
2017-12-02T11:28:22.491Z,57.20
2017-12-02T11:30:49.607Z,58.20
2017-12-02T11:33:15.826Z,60.10
2017-12-02T11:35:42.047Z,62.10
2017-12-02T11:38:09.076Z,64.80
2017-12-02T11:40:36.058Z,65.60
2017-12-02T11:43:02.317Z,67.10
2017-12-02T11:45:28.519Z,68.40
2017-12-02T11:47:54.751Z,69.00
2017-12-02T11:50:21.617Z,68.70
2017-12-02T11:52:47.929Z,69.20
2017-12-02T11:55:14.161Z,71.00
2017-12-02T11:57:41.497Z,72.10
2017-12-02T12:00:08.246Z,71.90
2017-12-02T12:02:35.299Z,72.30
2017-12-02T12:08:33.290Z,71.90
2017-12-02T12:10:59.519Z,71.10
2017-12-02T12:13:25.838Z,70.60
2017-12-02T12:15:52.951Z,70.40
2017-12-02T12:18:19.170Z,70.80
2017-12-02T12:20:45.420Z,71.60
2017-12-02T12:23:13.142Z,71.80
2017-12-02T12:25:39.388Z,71.80
2017-12-02T12:28:06.553Z,72.00
2017-12-02T12:30:33.723Z,72.20
2017-12-02T12:33:00.085Z,72.10
2017-12-02T12:35:26.982Z,72.30
2017-12-02T12:37:53.163Z,72.00
2017-12-02T12:40:19.420Z,72.50
2017-12-02T12:42:46.006Z,71.80
2017-12-02T12:45:13.564Z,72.50
2017-12-02T12:47:40.533Z,72.80
2017-12-02T12:50:06.718Z,72.30
2017-12-02T12:52:33.339Z,72.60
2017-12-02T12:54:59.546Z,72.90
2017-12-02T12:57:25.887Z,72.90
2017-12-02T12:59:53.169Z,72.50
2017-12-02T13:02:19.411Z,73.10
2017-12-02T13:04:46.440Z,72.90
2017-12-02T13:07:12.753Z,72.30
2017-12-02T13:09:40.034Z,71.90
2017-12-02T13:12:07.173Z,70.70
2017-12-02T13:14:33.421Z,72.20
2017-12-02T13:17:00.534Z,70.80
2017-12-02T13:19:26.743Z,69.30
2017-12-02T13:21:53.099Z,69.30
2017-12-02T13:24:20.149Z,69.30
2017-12-02T13:26:47.641Z,69.90
2017-12-02T13:29:14.282Z,69.60
2017-12-02T13:31:41.286Z,69.90
2017-12-02T13:34:07.504Z,69.10
2017-12-02T13:36:33.807Z,69.10
2017-12-02T13:39:00.415Z,69.40
2017-12-02T13:41:27.550Z,70.60
2017-12-02T13:43:53.795Z,71.10
2017-12-02T13:46:20.182Z,69.40
2017-12-02T13:48:46.543Z,71.30
2017-12-02T13:51:12.765Z,69.90
2017-12-02T13:53:39.118Z,70.40
2017-12-02T13:56:05.404Z,68.70
2017-12-02T13:58:31.671Z,68.60
2017-12-02T14:00:57.930Z,68.80
2017-12-02T14:03:24.205Z,69.40
2017-12-02T14:05:50.421Z,69.10
2017-12-02T14:08:17.276Z,68.80
2017-12-02T14:10:43.587Z,68.80
2017-12-02T14:13:10.234Z,68.80
2017-12-02T14:15:37.274Z,69.10
2017-12-02T14:18:03.685Z,69.40
2017-12-02T14:20:30.669Z,69.10
2017-12-02T14:22:57.304Z,69.10
2017-12-02T14:25:23.514Z,69.40
2017-12-02T14:27:49.758Z,69.80
2017-12-02T14:30:16.067Z,70.70
2017-12-02T14:32:42.359Z,72.00
2017-12-02T14:35:08.620Z,72.60
2017-12-02T14:37:34.824Z,73.20
2017-12-02T14:40:01.037Z,73.60
2017-12-02T14:42:27.413Z,74.50
2017-12-02T14:44:53.933Z,74.80
2017-12-02T14:47:20.863Z,76.30
2017-12-02T14:49:47.145Z,74.60
2017-12-02T14:52:13.376Z,74.80
2017-12-02T14:54:39.576Z,74.70
2017-12-02T14:57:05.800Z,75.10
2017-12-02T14:59:33.641Z,75.60
2017-12-02T15:01:59.924Z,75.60
2017-12-02T15:04:26.113Z,74.80
2017-12-02T15:06:52.376Z,74.10
2017-12-02T15:09:18.610Z,73.60
2017-12-02T15:11:44.845Z,73.10
2017-12-02T15:14:11.182Z,73.10
2017-12-02T15:16:37.459Z,73.50
2017-12-02T15:19:04.420Z,72.10
2017-12-02T15:21:32.398Z,72.30
2017-12-02T15:23:58.614Z,72.10
2017-12-02T15:26:25.619Z,72.40
2017-12-02T15:28:52.239Z,71.50
2017-12-02T15:31:18.426Z,71.80
2017-12-02T15:33:44.628Z,71.60
2017-12-02T15:36:10.879Z,72.10
2017-12-02T15:38:37.188Z,72.60
2017-12-02T15:41:03.419Z,73.00
2017-12-02T15:43:29.665Z,72.60
2017-12-02T15:45:55.915Z,72.50
2017-12-02T15:48:22.924Z,72.60
2017-12-02T15:50:49.226Z,72.60
2017-12-02T15:53:15.485Z,73.00
2017-12-02T15:55:41.719Z,72.90
2017-12-02T15:58:08.038Z,72.50
2017-12-02T16:00:34.425Z,72.40
2017-12-02T16:03:00.634Z,72.40
2017-12-02T16:05:26.879Z,73.00
2017-12-02T16:07:53.883Z,73.00
2017-12-02T16:10:20.143Z,74.20
2017-12-02T16:12:47.255Z,73.00
2017-12-02T16:15:13.501Z,73.60
2017-12-02T16:17:39.873Z,72.60
2017-12-02T16:20:06.194Z,72.80
2017-12-02T16:32:18.193Z,73.40
2017-12-02T16:34:44.444Z,73.50
2017-12-02T16:37:10.655Z,73.30
2017-12-02T16:39:36.928Z,73.10
2017-12-02T16:42:03.972Z,73.40
2017-12-02T16:44:30.203Z,73.40
2017-12-02T16:46:57.352Z,73.50
2017-12-02T16:49:23.584Z,72.50
2017-12-02T17:01:34.929Z,72.00
2017-12-02T17:04:02.205Z,73.30
2017-12-02T17:06:29.226Z,73.10
2017-12-02T17:08:56.203Z,73.10
2017-12-02T17:11:23.178Z,72.60
2017-12-02T17:13:49.503Z,72.40
2017-12-02T17:16:16.590Z,72.50
2017-12-02T17:18:42.848Z,73.10
2017-12-02T17:21:09.091Z,72.40
2017-12-02T17:23:36.481Z,72.80
2017-12-02T17:26:02.774Z,72.80
2017-12-02T17:28:29.744Z,72.30
2017-12-02T17:30:55.956Z,72.20
2017-12-02T17:33:22.923Z,72.00
2017-12-02T17:35:49.162Z,72.00
2017-12-02T17:38:15.443Z,72.00
2017-12-02T17:40:41.704Z,71.90
2017-12-02T17:43:08.043Z,72.10
2017-12-02T17:45:34.307Z,71.90
2017-12-02T17:48:00.603Z,71.70
2017-12-02T17:50:26.901Z,71.70
2017-12-02T17:52:53.827Z,71.60
2017-12-02T17:55:20.058Z,71.60
2017-12-02T17:57:46.342Z,71.90
2017-12-02T18:00:12.591Z,71.70
2017-12-02T18:02:38.836Z,71.60
2017-12-02T18:05:05.123Z,71.50
2017-12-02T18:07:31.376Z,70.90
2017-12-02T18:09:57.580Z,71.30
2017-12-02T18:12:23.835Z,70.70
2017-12-02T18:14:50.984Z,71.20
2017-12-02T18:17:17.343Z,71.00
2017-12-02T18:19:43.691Z,71.10
2017-12-02T18:22:11.628Z,71.30
2017-12-02T18:24:38.798Z,71.30
2017-12-02T18:27:05.182Z,71.00
2017-12-02T18:29:31.465Z,70.50
2017-12-02T18:31:57.716Z,70.30
2017-12-02T18:34:24.707Z,71.00
2017-12-02T18:36:50.937Z,70.60
2017-12-02T18:39:17.212Z,71.00
2017-12-02T18:41:43.484Z,70.50
2017-12-02T18:44:09.721Z,72.30
2017-12-02T18:46:36.050Z,73.60
2017-12-02T18:49:02.361Z,74.50
2017-12-02T18:51:29.634Z,74.20
2017-12-02T18:53:55.925Z,74.10
2017-12-02T18:56:22.959Z,73.20
2017-12-02T18:58:49.247Z,73.20
2017-12-02T19:01:15.537Z,72.80
2017-12-02T19:03:43.474Z,71.80
2017-12-02T19:06:09.659Z,71.00
2017-12-02T19:08:36.030Z,70.80
2017-12-02T19:11:02.310Z,70.60
2017-12-02T19:13:28.591Z,71.00
2017-12-02T19:15:54.800Z,71.40
2017-12-02T19:18:20.996Z,73.50
2017-12-02T19:20:47.966Z,74.10
2017-12-02T19:23:14.298Z,74.10
2017-12-02T19:25:40.551Z,73.80
2017-12-02T19:28:06.742Z,73.50
2017-12-02T19:30:32.960Z,74.00
2017-12-02T19:32:59.134Z,73.40
2017-12-02T19:35:25.382Z,74.00
2017-12-02T19:47:42.400Z,74.10
2017-12-02T19:50:08.727Z,74.80
2017-12-02T19:52:35.714Z,74.50
2017-12-02T19:55:01.964Z,73.40
2017-12-02T19:57:28.588Z,73.50
2017-12-02T19:59:54.913Z,73.70
2017-12-02T20:02:21.176Z,73.60
2017-12-02T20:04:47.462Z,73.20
2017-12-02T20:07:13.714Z,72.60
2017-12-02T20:09:40.046Z,72.70
2017-12-02T20:12:06.364Z,73.30
2017-12-02T20:14:32.743Z,73.30
2017-12-02T20:16:58.995Z,73.20
2017-12-02T20:19:25.391Z,73.80
2017-12-02T20:21:51.771Z,74.00
2017-12-02T20:24:19.449Z,74.30
2017-12-02T20:26:46.416Z,73.30
2017-12-02T20:29:12.661Z,73.30
2017-12-02T20:31:38.999Z,73.80
2017-12-02T20:34:06.037Z,73.50
2017-12-02T20:36:32.332Z,73.80
2017-12-02T20:38:58.682Z,73.30
2017-12-02T20:41:24.924Z,73.90
2017-12-02T20:43:51.155Z,74.00
2017-12-02T20:46:17.467Z,70.70
2017-12-02T20:48:46.881Z,70.40
2017-12-02T20:51:13.170Z,70.10
2017-12-02T20:53:45.488Z,69.70
2017-12-02T20:56:12.079Z,69.40
2017-12-02T20:58:38.656Z,70.10
2017-12-02T21:01:05.203Z,69.20
2017-12-02T21:03:31.624Z,69.00
2017-12-02T21:05:57.939Z,69.60
2017-12-02T21:08:24.233Z,69.60
2017-12-02T21:10:51.182Z,70.10
2017-12-02T21:13:18.341Z,69.90
2017-12-02T21:15:45.356Z,69.20
2017-12-02T21:18:11.659Z,69.00
2017-12-02T21:20:37.933Z,69.10
2017-12-02T21:23:05.028Z,69.60
2017-12-02T21:35:17.448Z,68.90
2017-12-02T21:37:44.421Z,69.10
2017-12-02T21:40:11.068Z,69.40
2017-12-02T21:42:37.343Z,70.00
2017-12-02T21:45:03.710Z,69.80
2017-12-02T21:47:31.965Z,69.10
2017-12-02T21:49:58.258Z,68.60
2017-12-02T21:52:24.590Z,69.10
2017-12-02T21:54:51.861Z,69.60
2017-12-02T21:57:18.122Z,70.00
2017-12-02T21:59:44.903Z,70.50
2017-12-02T22:02:11.184Z,70.10
2017-12-02T22:04:38.304Z,70.70
2017-12-02T22:07:04.934Z,69.30
2017-12-02T22:09:31.351Z,69.20
2017-12-02T22:11:57.695Z,69.10
2017-12-02T22:14:23.979Z,69.70
2017-12-02T22:16:50.969Z,69.80
2017-12-02T22:19:17.415Z,70.30
2017-12-02T22:21:43.831Z,70.10
2017-12-02T22:24:23.441Z,69.70
2017-12-02T22:26:49.891Z,69.60
2017-12-02T22:29:16.165Z,69.70
2017-12-02T22:31:43.271Z,69.60
2017-12-02T22:34:09.522Z,69.50
2017-12-02T22:36:36.511Z,69.30
2017-12-02T22:39:02.857Z,69.40
2017-12-02T22:41:30.879Z,70.50
2017-12-02T22:43:57.109Z,70.10
2017-12-02T22:56:08.448Z,69.80
2017-12-02T22:58:34.716Z,69.60
2017-12-02T23:01:00.912Z,69.40
2017-12-02T23:03:27.262Z,70.00
2017-12-02T23:05:53.506Z,70.40
2017-12-02T23:08:19.801Z,69.50
2017-12-02T23:10:46.104Z,70.00
2017-12-02T23:13:12.781Z,69.90
2017-12-02T23:15:39.037Z,69.10
2017-12-02T23:18:05.264Z,69.80
2017-12-02T23:20:31.528Z,69.90
2017-12-02T23:22:58.586Z,69.80
2017-12-02T23:25:24.824Z,69.00
2017-12-02T23:27:51.131Z,69.60
2017-12-02T23:30:17.348Z,69.90
2017-12-02T23:32:43.696Z,69.30
2017-12-02T23:35:10.775Z,70.00
2017-12-02T23:37:37.063Z,69.10
2017-12-02T23:40:04.418Z,69.50
2017-12-02T23:42:31.383Z,69.00
2017-12-02T23:44:58.511Z,68.80
2017-12-02T23:57:14.826Z,68.80
